Time;durP1;ratioP1;P1;durP2;ratioP2;P2;SDS_P1;SDS_P2;PMS_P1;PMS_P2;Temp;Humidity;BMP_temperature;BMP_pressure;BME280_temperature;BME280_humidity;BME280_pressure;Samples;Min_cycle;Max_cycle;Signal;HPM_P1;HPM_P2
2022/11/30 00:01:25;;;;;;;220.60;72.47;;;;;;;;;;749184;184;898981;-62
2022/11/30 00:03:52;;;;;;;167.10;65.80;;;;;;;;;;751882;185;909961;-63
2022/11/30 00:06:21;;;;;;;254.02;82.57;;;;;;;;;;761404;183;917270;-64
2022/11/30 00:08:44;;;;;;;172.33;64.03;;;;;;;;;;761894;183;919143;-61
2022/11/30 00:11:10;;;;;;;350.10;85.83;;;;;;;;;;750512;185;921829;-63
2022/11/30 00:13:36;;;;;;;158.57;55.80;;;;;;;;;;747286;184;918815;-63
2022/11/30 00:16:01;;;;;;;235.67;71.57;;;;;;;;;;764101;184;920156;-64
2022/11/30 00:18:27;;;;;;;145.80;55.43;;;;;;;;;;757578;184;918048;-61
2022/11/30 00:20:54;;;;;;;127.53;46.90;;;;;;;;;;766607;181;920567;-60
2022/11/30 00:23:19;;;;;;;87.97;38.83;;;;;;;;;;772176;180;627870;-61
2022/11/30 00:25:45;;;;;;;157.77;56.40;;;;;;;;;;770159;180;873671;-61
2022/11/30 00:28:11;;;;;;;181.90;57.33;;;;;;;;;;752757;181;918266;-64
2022/11/30 00:30:36;;;;;;;168.73;65.70;;;;;;;;;;776018;180;918094;-63
2022/11/30 00:33:02;;;;;;;174.73;60.17;;;;;;;;;;755971;183;920497;-63
2022/11/30 00:35:30;;;;;;;149.87;63.87;;;;;;;;;;759644;183;913383;-63
2022/11/30 00:37:54;;;;;;;120.37;52.70;;;;;;;;;;761847;183;818555;-64
2022/11/30 00:40:21;;;;;;;101.43;42.37;;;;;;;;;;764911;184;920807;-61
2022/11/30 00:42:46;;;;;;;138.10;59.13;;;;;;;;;;756184;184;846968;-63
2022/11/30 00:45:12;;;;;;;114.53;45.63;;;;;;;;;;776353;179;919337;-63
2022/11/30 00:47:37;;;;;;;114.43;52.03;;;;;;;;;;782837;179;815047;-64
2022/11/30 00:50:04;;;;;;;148.20;56.97;;;;;;;;;;756679;183;919272;-61
2022/11/30 00:52:30;;;;;;;204.53;56.87;;;;;;;;;;754683;185;926443;-61
2022/11/30 00:54:55;;;;;;;216.60;64.03;;;;;;;;;;762697;184;918421;-63
2022/11/30 00:57:21;;;;;;;191.00;60.97;;;;;;;;;;765404;180;915717;-62
2022/11/30 00:59:47;;;;;;;298.53;69.97;;;;;;;;;;769006;179;915368;-61
2022/11/30 01:02:13;;;;;;;135.43;42.30;;;;;;;;;;767682;179;816533;-63
2022/11/30 01:04:39;;;;;;;158.87;53.90;;;;;;;;;;781770;179;889896;-61
2022/11/30 01:07:05;;;;;;;168.17;50.80;;;;;;;;;;772193;179;918447;-61
2022/11/30 01:09:31;;;;;;;180.10;58.22;;;;;;;;;;767130;179;943753;-64
2022/11/30 01:11:56;;;;;;;128.53;54.00;;;;;;;;;;770247;181;917660;-62
2022/11/30 01:14:22;;;;;;;193.80;61.23;;;;;;;;;;753543;183;919353;-61
2022/11/30 01:16:48;;;;;;;134.75;48.90;;;;;;;;;;759279;183;918512;-61
2022/11/30 01:19:14;;;;;;;74.90;33.47;;;;;;;;;;773127;180;918532;-62
2022/11/30 01:21:40;;;;;;;58.07;27.53;;;;;;;;;;760332;183;918527;-64
2022/11/30 01:24:06;;;;;;;115.50;46.10;;;;;;;;;;758202;183;919788;-63
2022/11/30 01:26:32;;;;;;;125.37;53.47;;;;;;;;;;759011;184;915743;-62
2022/11/30 01:28:58;;;;;;;128.17;56.43;;;;;;;;;;763255;184;916280;-61
2022/11/30 01:31:24;;;;;;;165.23;62.27;;;;;;;;;;757445;184;916909;-61
2022/11/30 01:33:50;;;;;;;78.93;36.43;;;;;;;;;;766690;180;915532;-63
2022/11/30 01:36:16;;;;;;;120.47;47.77;;;;;;;;;;763047;184;817570;-64
2022/11/30 01:38:42;;;;;;;130.20;51.13;;;;;;;;;;751504;184;919524;-63
2022/11/30 01:41:08;;;;;;;117.10;52.90;;;;;;;;;;747523;185;919086;-63
2022/11/30 01:43:36;;;;;;;118.63;50.90;;;;;;;;;;760577;184;919359;-60
2022/11/30 01:46:01;;;;;;;113.47;48.93;;;;;;;;;;743539;188;916251;-62
2022/11/30 01:48:27;;;;;;;109.63;50.40;;;;;;;;;;762513;184;919023;-62
2022/11/30 01:50:53;;;;;;;111.67;44.23;;;;;;;;;;751364;184;880094;-61
2022/11/30 01:53:19;;;;;;;142.83;50.90;;;;;;;;;;756679;182;918894;-60
2022/11/30 01:55:45;;;;;;;101.70;51.17;;;;;;;;;;752167;184;819377;-63
2022/11/30 01:58:11;;;;;;;115.00;45.83;;;;;;;;;;740093;185;919282;-64
2022/11/30 02:00:37;;;;;;;115.60;51.37;;;;;;;;;;745073;184;1019099;-63
2022/11/30 02:03:09;;;;;;;120.70;51.23;;;;;;;;;;761752;183;919396;-62
2022/11/30 02:05:34;;;;;;;111.07;51.80;;;;;;;;;;761195;180;918860;-61
2022/11/30 02:08:00;;;;;;;98.83;43.77;;;;;;;;;;765605;182;919041;-63
2022/11/30 02:10:26;;;;;;;151.77;53.10;;;;;;;;;;764626;179;918707;-63
2022/11/30 02:12:57;;;;;;;96.47;35.80;;;;;;;;;;750383;184;919585;-63
2022/11/30 02:15:23;;;;;;;96.17;39.63;;;;;;;;;;751909;183;914237;-61
2022/11/30 02:17:50;;;;;;;94.03;32.23;;;;;;;;;;760969;184;916878;-63
2022/11/30 02:20:35;;;;;;;94.00;40.00;;;;;;;;;;757922;183;923118;-62
2022/11/30 02:23:02;;;;;;;105.87;43.47;;;;;;;;;;759844;183;1021688;-62
2022/11/30 02:25:34;;;;;;;108.87;44.80;;;;;;;;;;769853;180;916227;-64
2022/11/30 02:28:02;;;;;;;144.63;44.23;;;;;;;;;;771309;180;922125;-62
2022/11/30 02:30:29;;;;;;;110.07;42.30;;;;;;;;;;762667;181;921111;-64
2022/11/30 02:32:55;;;;;;;97.70;47.77;;;;;;;;;;763568;183;919043;-62
2022/11/30 02:35:21;;;;;;;102.45;44.97;;;;;;;;;;772036;179;915706;-63
2022/11/30 02:37:47;;;;;;;51.93;24.13;;;;;;;;;;756185;184;919251;-62
2022/11/30 02:40:13;;;;;;;94.37;42.50;;;;;;;;;;778488;179;920150;-63
2022/11/30 02:42:39;;;;;;;116.00;43.20;;;;;;;;;;762909;183;816009;-60
2022/11/30 02:45:06;;;;;;;95.00;40.45;;;;;;;;;;756738;183;1021882;-64
2022/11/30 02:47:32;;;;;;;94.00;36.90;;;;;;;;;;763264;184;919591;-61
2022/11/30 02:49:59;;;;;;;92.33;38.47;;;;;;;;;;746477;185;918766;-61
2022/11/30 02:52:25;;;;;;;73.00;33.57;;;;;;;;;;748667;185;919274;-60
2022/11/30 02:54:51;;;;;;;100.40;41.17;;;;;;;;;;757780;184;919152;-62
2022/11/30 02:57:17;;;;;;;104.60;42.63;;;;;;;;;;763134;183;919445;-64
2022/11/30 02:59:43;;;;;;;88.27;34.20;;;;;;;;;;769741;181;919373;-63
2022/11/30 03:02:08;;;;;;;123.30;49.87;;;;;;;;;;754856;184;919654;-61
2022/11/30 03:04:34;;;;;;;105.90;42.20;;;;;;;;;;764981;184;920758;-61
2022/11/30 03:07:00;;;;;;;113.00;50.90;;;;;;;;;;766682;180;1022013;-62
2022/11/30 03:09:26;;;;;;;102.50;42.90;;;;;;;;;;759731;183;816676;-61
2022/11/30 03:11:52;;;;;;;120.62;48.00;;;;;;;;;;768514;183;918955;-61
2022/11/30 03:14:18;;;;;;;69.10;33.87;;;;;;;;;;757384;180;919741;-61
2022/11/30 03:16:43;;;;;;;130.48;50.83;;;;;;;;;;757972;183;913401;-60
2022/11/30 03:19:09;;;;;;;72.23;28.97;;;;;;;;;;765417;183;912293;-61
2022/11/30 03:21:35;;;;;;;122.30;49.87;;;;;;;;;;763278;183;1020675;-63
2022/11/30 03:24:01;;;;;;;84.15;38.17;;;;;;;;;;765290;183;919484;-62
2022/11/30 03:26:27;;;;;;;93.97;39.70;;;;;;;;;;770319;180;919927;-64
2022/11/30 03:28:53;;;;;;;50.63;23.10;;;;;;;;;;774400;181;875421;-60
2022/11/30 03:31:19;;;;;;;90.37;35.03;;;;;;;;;;758071;183;919349;-63
2022/11/30 03:33:44;;;;;;;112.03;44.10;;;;;;;;;;757858;184;919176;-61
2022/11/30 03:36:10;;;;;;;115.00;45.33;;;;;;;;;;762899;181;920122;-60
2022/11/30 03:38:36;;;;;;;94.60;39.07;;;;;;;;;;749054;183;920638;-64
2022/11/30 03:41:02;;;;;;;96.43;41.20;;;;;;;;;;760080;183;920522;-63
2022/11/30 03:43:28;;;;;;;105.27;41.00;;;;;;;;;;767788;183;665647;-63
2022/11/30 03:45:54;;;;;;;62.03;25.17;;;;;;;;;;757759;184;920656;-65
2022/11/30 03:48:20;;;;;;;142.27;50.43;;;;;;;;;;759016;184;918397;-64
2022/11/30 03:50:48;;;;;;;84.43;32.90;;;;;;;;;;747890;187;919377;-63
2022/11/30 03:53:11;;;;;;;72.30;33.27;;;;;;;;;;764593;180;919064;-63
2022/11/30 03:55:37;;;;;;;114.83;44.37;;;;;;;;;;764618;180;919347;-62
2022/11/30 03:58:03;;;;;;;123.73;46.03;;;;;;;;;;762607;181;918899;-62
2022/11/30 04:00:29;;;;;;;129.10;48.20;;;;;;;;;;778901;179;817956;-61
2022/11/30 04:02:55;;;;;;;121.60;41.33;;;;;;;;;;754475;183;918569;-60
2022/11/30 04:05:21;;;;;;;93.67;37.30;;;;;;;;;;759585;184;918690;-61
2022/11/30 04:07:46;;;;;;;115.40;40.50;;;;;;;;;;766831;184;918313;-64
2022/11/30 04:10:12;;;;;;;63.28;22.42;;;;;;;;;;753398;184;910074;-64
2022/11/30 04:12:38;;;;;;;72.13;29.60;;;;;;;;;;750319;185;919090;-65
2022/11/30 04:15:04;;;;;;;90.93;30.50;;;;;;;;;;765260;183;915385;-64
2022/11/30 04:17:30;;;;;;;110.07;40.13;;;;;;;;;;761367;180;921412;-64
2022/11/30 04:19:56;;;;;;;152.37;49.27;;;;;;;;;;759917;180;919552;-61
2022/11/30 04:22:22;;;;;;;119.40;35.63;;;;;;;;;;747092;183;918865;-63
2022/11/30 04:24:48;;;;;;;104.80;40.05;;;;;;;;;;761904;184;918086;-62
2022/11/30 04:27:13;;;;;;;104.43;40.30;;;;;;;;;;742031;186;918658;-61
2022/11/30 04:29:39;;;;;;;120.03;39.77;;;;;;;;;;764775;182;886372;-62
2022/11/30 04:32:05;;;;;;;59.77;26.40;;;;;;;;;;781030;180;920304;-63
2022/11/30 04:34:31;;;;;;;103.63;35.60;;;;;;;;;;759611;180;905712;-60
2022/11/30 04:36:57;;;;;;;82.30;31.90;;;;;;;;;;759103;183;917951;-64
2022/11/30 04:39:23;;;;;;;59.77;27.03;;;;;;;;;;766236;182;918592;-64
2022/11/30 04:41:49;;;;;;;56.67;23.37;;;;;;;;;;761974;182;920324;-63
2022/11/30 04:44:14;;;;;;;70.40;26.65;;;;;;;;;;770568;179;816680;-61
2022/11/30 04:46:41;;;;;;;66.87;24.42;;;;;;;;;;765124;181;938289;-61
2022/11/30 04:49:07;;;;;;;71.10;29.87;;;;;;;;;;753260;181;915740;-61
2022/11/30 04:51:33;;;;;;;55.00;23.30;;;;;;;;;;748525;183;1021659;-61
2022/11/30 04:53:58;;;;;;;53.80;24.90;;;;;;;;;;766552;179;918001;-61
2022/11/30 04:56:24;;;;;;;51.03;21.70;;;;;;;;;;770580;181;881416;-64
2022/11/30 04:58:50;;;;;;;46.67;24.13;;;;;;;;;;758534;180;918385;-63
2022/11/30 05:01:16;;;;;;;99.97;45.33;;;;;;;;;;757961;184;886009;-63
2022/11/30 05:03:42;;;;;;;82.73;38.27;;;;;;;;;;763475;182;912882;-63
2022/11/30 05:06:08;;;;;;;84.10;38.40;;;;;;;;;;751172;187;695282;-65
2022/11/30 05:08:33;;;;;;;120.53;53.30;;;;;;;;;;751773;184;918344;-64
2022/11/30 05:10:59;;;;;;;129.43;48.67;;;;;;;;;;763521;183;918512;-61
2022/11/30 05:13:25;;;;;;;123.27;53.53;;;;;;;;;;759539;183;920891;-64
2022/11/30 05:15:52;;;;;;;71.90;29.63;;;;;;;;;;754389;184;621374;-63
2022/11/30 05:18:17;;;;;;;103.00;38.33;;;;;;;;;;757596;184;626863;-64
2022/11/30 05:20:46;;;;;;;71.33;28.27;;;;;;;;;;761176;181;616614;-61
2022/11/30 05:23:11;;;;;;;88.33;33.07;;;;;;;;;;748213;181;915748;-61
2022/11/30 05:25:38;;;;;;;68.33;27.33;;;;;;;;;;752927;183;818379;-64
2022/11/30 05:28:04;;;;;;;90.73;35.97;;;;;;;;;;762895;183;912825;-60
2022/11/30 05:30:29;;;;;;;93.77;30.60;;;;;;;;;;755173;184;816487;-63
2022/11/30 05:32:55;;;;;;;59.80;24.73;;;;;;;;;;756793;184;917676;-65
2022/11/30 05:35:22;;;;;;;82.05;32.78;;;;;;;;;;768505;180;858234;-62
2022/11/30 05:37:48;;;;;;;67.27;29.37;;;;;;;;;;774681;179;918907;-61
2022/11/30 05:40:14;;;;;;;97.90;38.43;;;;;;;;;;758214;179;919220;-65
2022/11/30 05:42:40;;;;;;;58.92;31.55;;;;;;;;;;770400;179;919994;-62
2022/11/30 05:45:06;;;;;;;103.60;37.80;;;;;;;;;;772073;180;919121;-63
2022/11/30 05:47:32;;;;;;;134.50;55.80;;;;;;;;;;757437;183;884816;-61
2022/11/30 05:49:58;;;;;;;105.90;42.60;;;;;;;;;;764331;179;918096;-64
2022/11/30 05:52:24;;;;;;;79.17;30.53;;;;;;;;;;777940;180;817293;-64
2022/11/30 05:54:50;;;;;;;41.53;18.87;;;;;;;;;;766500;180;919258;-62
2022/11/30 05:57:16;;;;;;;73.40;32.30;;;;;;;;;;763824;180;920039;-64
2022/11/30 05:59:42;;;;;;;74.43;31.60;;;;;;;;;;775046;179;621303;-65
2022/11/30 06:02:08;;;;;;;86.30;29.73;;;;;;;;;;762609;184;628707;-63
2022/11/30 06:04:34;;;;;;;92.93;31.67;;;;;;;;;;772952;180;915463;-62
2022/11/30 06:07:00;;;;;;;112.23;37.30;;;;;;;;;;771786;179;910829;-61
2022/11/30 06:09:25;;;;;;;131.93;52.57;;;;;;;;;;758186;180;918736;-62
2022/11/30 06:11:51;;;;;;;69.22;32.53;;;;;;;;;;749210;184;917071;-62
2022/11/30 06:14:17;;;;;;;80.40;32.10;;;;;;;;;;747452;185;920917;-61
2022/11/30 06:16:43;;;;;;;103.73;33.47;;;;;;;;;;756697;184;918376;-62
2022/11/30 06:19:09;;;;;;;105.43;38.85;;;;;;;;;;769079;180;917708;-64
2022/11/30 06:21:35;;;;;;;59.07;27.07;;;;;;;;;;771758;180;910938;-60
2022/11/30 06:24:01;;;;;;;103.97;33.13;;;;;;;;;;762040;184;918982;-62
2022/11/30 06:26:26;;;;;;;74.03;26.90;;;;;;;;;;755791;184;918934;-64
2022/11/30 06:28:52;;;;;;;83.27;32.67;;;;;;;;;;755582;183;918784;-61
2022/11/30 06:31:18;;;;;;;96.50;34.03;;;;;;;;;;760345;183;919079;-61
2022/11/30 06:33:44;;;;;;;60.73;29.47;;;;;;;;;;761498;183;918920;-62
2022/11/30 06:36:10;;;;;;;74.53;28.83;;;;;;;;;;761965;179;919121;-63
2022/11/30 06:38:36;;;;;;;90.97;36.27;;;;;;;;;;767952;179;921238;-64
2022/11/30 06:41:01;;;;;;;84.20;33.20;;;;;;;;;;762552;183;918937;-61
2022/11/30 06:43:27;;;;;;;77.83;29.70;;;;;;;;;;759310;183;941433;-64
2022/11/30 06:45:53;;;;;;;80.10;31.23;;;;;;;;;;759112;183;918998;-61
2022/11/30 06:48:21;;;;;;;76.97;26.37;;;;;;;;;;766884;181;919868;-62
2022/11/30 06:50:45;;;;;;;60.85;26.65;;;;;;;;;;762683;182;821446;-62
2022/11/30 06:53:11;;;;;;;80.50;30.93;;;;;;;;;;762191;182;916190;-63
2022/11/30 06:55:37;;;;;;;58.10;21.17;;;;;;;;;;757865;183;918392;-61
2022/11/30 06:58:05;;;;;;;99.57;37.27;;;;;;;;;;771067;180;918883;-63
2022/11/30 07:00:31;;;;;;;87.90;34.43;;;;;;;;;;762858;181;919644;-61
2022/11/30 07:02:57;;;;;;;53.67;21.10;;;;;;;;;;754057;180;919150;-61
2022/11/30 07:05:23;;;;;;;64.73;24.33;;;;;;;;;;765143;183;918460;-62
2022/11/30 07:07:48;;;;;;;88.62;33.00;;;;;;;;;;761856;183;815742;-63
2022/11/30 07:10:14;;;;;;;68.70;32.57;;;;;;;;;;757678;183;913434;-61
2022/11/30 07:12:40;;;;;;;72.23;29.60;;;;;;;;;;764234;182;915623;-62
2022/11/30 07:15:07;;;;;;;88.63;32.43;;;;;;;;;;760605;184;919120;-62
2022/11/30 07:17:32;;;;;;;64.07;26.20;;;;;;;;;;751593;185;917465;-63
2022/11/30 07:19:58;;;;;;;94.53;33.70;;;;;;;;;;745555;186;915297;-60
2022/11/30 07:22:24;;;;;;;57.07;24.70;;;;;;;;;;757813;184;876906;-62
2022/11/30 07:27:22;;;;;;;98.20;39.47;;;;;;;;;;750255;183;918504;-61
2022/11/30 07:29:50;;;;;;;44.17;22.80;;;;;;;;;;760251;185;920263;-64
2022/11/30 07:32:13;;;;;;;78.43;31.63;;;;;;;;;;751390;185;919243;-63
2022/11/30 07:34:39;;;;;;;65.90;29.65;;;;;;;;;;754431;184;918915;-60
2022/11/30 07:37:05;;;;;;;111.67;39.90;;;;;;;;;;754663;183;919116;-61
2022/11/30 07:39:31;;;;;;;76.50;31.33;;;;;;;;;;762909;184;918331;-62
2022/11/30 07:41:57;;;;;;;98.10;32.87;;;;;;;;;;752401;184;920349;-61
2022/11/30 07:44:23;;;;;;;110.50;44.23;;;;;;;;;;756796;180;1022221;-62
2022/11/30 07:46:48;;;;;;;85.33;31.90;;;;;;;;;;765672;184;867163;-64
2022/11/30 07:49:14;;;;;;;117.97;41.27;;;;;;;;;;762319;184;818200;-61
2022/11/30 07:51:40;;;;;;;127.53;44.90;;;;;;;;;;741392;187;919043;-60
2022/11/30 07:54:06;;;;;;;66.17;24.67;;;;;;;;;;745019;189;920018;-62
2022/11/30 07:56:32;;;;;;;83.17;30.97;;;;;;;;;;740310;189;919075;-60
2022/11/30 07:58:58;;;;;;;90.20;29.63;;;;;;;;;;751466;183;816785;-61
2022/11/30 08:01:24;;;;;;;156.57;46.88;;;;;;;;;;751892;185;920460;-62
2022/11/30 08:03:50;;;;;;;61.37;26.53;;;;;;;;;;754494;182;917950;-63
2022/11/30 08:06:18;;;;;;;69.90;29.33;;;;;;;;;;744955;184;919044;-60
2022/11/30 08:08:42;;;;;;;69.05;24.90;;;;;;;;;;749360;187;919153;-61
2022/11/30 08:11:07;;;;;;;74.37;23.80;;;;;;;;;;760296;183;918685;-63
2022/11/30 08:13:33;;;;;;;68.13;27.27;;;;;;;;;;752232;184;919587;-61
2022/11/30 08:16:02;;;;;;;87.15;35.20;;;;;;;;;;756228;181;943411;-63
2022/11/30 08:18:28;;;;;;;70.97;26.57;;;;;;;;;;777011;180;919120;-62
2022/11/30 08:20:56;;;;;;;84.57;35.57;;;;;;;;;;772786;180;918502;-64
2022/11/30 08:23:22;;;;;;;77.60;30.60;;;;;;;;;;744409;184;919178;-62
2022/11/30 08:25:48;;;;;;;108.93;41.07;;;;;;;;;;751024;183;918261;-61
2022/11/30 08:28:14;;;;;;;76.83;30.30;;;;;;;;;;769608;183;919943;-63
2022/11/30 08:30:40;;;;;;;66.57;26.10;;;;;;;;;;764722;183;920519;-62
2022/11/30 08:33:06;;;;;;;47.00;21.97;;;;;;;;;;766044;182;919371;-62
2022/11/30 08:35:31;;;;;;;44.03;16.40;;;;;;;;;;767284;182;917327;-61
2022/11/30 08:37:57;;;;;;;56.63;26.07;;;;;;;;;;762057;182;921949;-62
2022/11/30 08:40:23;;;;;;;80.67;30.97;;;;;;;;;;749602;184;913523;-66
2022/11/30 08:42:49;;;;;;;123.70;46.50;;;;;;;;;;748883;184;816420;-61
2022/11/30 08:45:15;;;;;;;96.60;42.00;;;;;;;;;;749608;185;870506;-63
2022/11/30 08:47:41;;;;;;;93.63;35.70;;;;;;;;;;755130;184;914716;-64
2022/11/30 08:50:07;;;;;;;36.43;19.97;;;;;;;;;;754095;184;917108;-61
2022/11/30 08:52:33;;;;;;;129.40;42.60;;;;;;;;;;778523;180;913558;-63
2022/11/30 08:54:58;;;;;;;121.00;42.03;;;;;;;;;;766498;180;911200;-64
2022/11/30 08:57:25;;;;;;;96.70;35.77;;;;;;;;;;766921;181;938876;-63
2022/11/30 08:59:50;;;;;;;90.33;29.60;;;;;;;;;;764698;179;919308;-61
2022/11/30 09:02:17;;;;;;;44.40;17.73;;;;;;;;;;773450;181;915361;-62
2022/11/30 09:04:42;;;;;;;51.77;19.23;;;;;;;;;;771681;180;918850;-62
2022/11/30 09:07:08;;;;;;;93.23;34.87;;;;;;;;;;779191;179;705084;-62
2022/11/30 09:09:34;;;;;;;80.83;29.27;;;;;;;;;;779345;179;621520;-62
2022/11/30 09:12:00;;;;;;;109.33;35.90;;;;;;;;;;775884;179;923554;-61
2022/11/30 09:14:26;;;;;;;91.67;30.50;;;;;;;;;;777792;179;822861;-62
2022/11/30 09:16:52;;;;;;;127.10;48.23;;;;;;;;;;774249;179;917868;-64
2022/11/30 09:19:18;;;;;;;135.93;52.70;;;;;;;;;;759711;184;813936;-62
2022/11/30 09:21:43;;;;;;;133.77;43.77;;;;;;;;;;764224;183;636245;-64
2022/11/30 09:24:09;;;;;;;89.90;32.70;;;;;;;;;;777190;179;655738;-63
2022/11/30 09:26:35;;;;;;;46.30;21.13;;;;;;;;;;764170;183;628641;-62
2022/11/30 09:29:01;;;;;;;94.13;37.97;;;;;;;;;;764436;181;919542;-62
2022/11/30 09:31:27;;;;;;;67.60;28.77;;;;;;;;;;776993;180;816184;-66
2022/11/30 09:33:53;;;;;;;74.07;31.47;;;;;;;;;;765060;180;817662;-62
2022/11/30 09:36:19;;;;;;;86.90;36.20;;;;;;;;;;757454;183;918507;-64
2022/11/30 09:38:45;;;;;;;92.60;36.75;;;;;;;;;;758616;183;913107;-64
2022/11/30 09:41:18;;;;;;;63.67;21.53;;;;;;;;;;758626;183;920173;-66
2022/11/30 09:43:44;;;;;;;93.70;35.42;;;;;;;;;;766479;183;920996;-63
2022/11/30 09:46:10;;;;;;;98.20;35.27;;;;;;;;;;767066;180;919665;-63
2022/11/30 09:48:37;;;;;;;71.03;25.92;;;;;;;;;;779611;180;918498;-64
2022/11/30 09:51:04;;;;;;;78.10;29.30;;;;;;;;;;766324;180;919006;-64
2022/11/30 09:53:42;;;;;;;135.73;49.60;;;;;;;;;;749625;186;919202;-64
2022/11/30 09:56:14;;;;;;;112.03;44.70;;;;;;;;;;733593;190;919128;-64
2022/11/30 09:58:49;;;;;;;50.27;20.83;;;;;;;;;;757840;181;895479;-62
2022/11/30 10:01:15;;;;;;;84.40;32.47;;;;;;;;;;768507;183;918892;-65
2022/11/30 10:03:41;;;;;;;86.57;30.20;;;;;;;;;;754316;184;918519;-64
2022/11/30 10:06:08;;;;;;;79.23;29.23;;;;;;;;;;761518;183;915794;-64
2022/11/30 10:08:36;;;;;;;92.87;36.37;;;;;;;;;;761677;183;923434;-63
2022/11/30 10:11:07;;;;;;;63.93;24.13;;;;;;;;;;766893;183;938279;-65
2022/11/30 10:13:43;;;;;;;55.70;23.67;;;;;;;;;;761544;182;919928;-64
2022/11/30 10:16:13;;;;;;;94.57;32.73;;;;;;;;;;762945;180;918201;-61
2022/11/30 10:18:44;;;;;;;37.73;15.33;;;;;;;;;;763803;180;918432;-61
2022/11/30 10:21:25;;;;;;;64.77;31.23;;;;;;;;;;753239;181;922232;-62
2022/11/30 10:24:06;;;;;;;76.37;30.67;;;;;;;;;;755489;185;920424;-61
2022/11/30 10:26:32;;;;;;;75.20;24.70;;;;;;;;;;764137;179;920418;-62
2022/11/30 10:28:58;;;;;;;82.93;37.17;;;;;;;;;;780036;179;910782;-60
2022/11/30 10:31:27;;;;;;;76.60;29.83;;;;;;;;;;757210;183;918867;-62
2022/11/30 10:33:53;;;;;;;64.07;26.73;;;;;;;;;;745711;186;918283;-61
2022/11/30 10:36:23;;;;;;;81.43;35.50;;;;;;;;;;767138;183;916493;-65
2022/11/30 10:38:49;;;;;;;61.63;25.27;;;;;;;;;;755864;183;919488;-61
2022/11/30 10:41:14;;;;;;;71.87;23.50;;;;;;;;;;749398;186;915441;-64
2022/11/30 10:43:44;;;;;;;75.13;27.00;;;;;;;;;;745371;185;918958;-65
2022/11/30 10:46:11;;;;;;;51.50;25.60;;;;;;;;;;740222;191;918684;-64
2022/11/30 10:48:37;;;;;;;86.83;37.80;;;;;;;;;;747324;187;919101;-61
2022/11/30 10:51:03;;;;;;;64.70;29.73;;;;;;;;;;740748;188;913472;-64
2022/11/30 10:53:28;;;;;;;106.93;41.57;;;;;;;;;;771417;180;919222;-65
2022/11/30 10:55:55;;;;;;;79.37;33.93;;;;;;;;;;774209;180;918829;-65
2022/11/30 10:58:21;;;;;;;68.53;27.60;;;;;;;;;;765309;180;917051;-62
2022/11/30 11:00:52;;;;;;;83.10;32.03;;;;;;;;;;759472;181;920933;-65
2022/11/30 11:03:21;;;;;;;92.83;35.33;;;;;;;;;;774693;179;911477;-65
2022/11/30 11:05:47;;;;;;;96.97;37.10;;;;;;;;;;765746;180;918964;-66
2022/11/30 11:08:15;;;;;;;50.47;22.03;;;;;;;;;;769486;180;919326;-62
2022/11/30 11:10:42;;;;;;;64.43;26.05;;;;;;;;;;767961;180;912890;-64
2022/11/30 11:13:14;;;;;;;89.40;36.37;;;;;;;;;;762062;182;915496;-66
2022/11/30 11:15:39;;;;;;;79.37;32.40;;;;;;;;;;752864;184;819173;-62
2022/11/30 11:18:11;;;;;;;115.73;36.70;;;;;;;;;;768031;179;918868;-62
2022/11/30 11:20:41;;;;;;;107.33;39.67;;;;;;;;;;760186;182;918157;-61
2022/11/30 11:23:04;;;;;;;72.27;30.17;;;;;;;;;;762563;183;816524;-64
2022/11/30 11:25:31;;;;;;;53.43;26.43;;;;;;;;;;758053;184;849455;-65
2022/11/30 11:27:56;;;;;;;77.47;26.57;;;;;;;;;;771790;180;851344;-65
2022/11/30 11:30:31;;;;;;;89.87;36.27;;;;;;;;;;750738;184;917878;-64
2022/11/30 11:33:12;;;;;;;80.55;34.40;;;;;;;;;;764109;180;810519;-62
2022/11/30 11:35:40;;;;;;;86.87;36.10;;;;;;;;;;743711;184;917775;-63
2022/11/30 11:38:11;;;;;;;71.80;29.23;;;;;;;;;;755552;182;917784;-62
2022/11/30 11:40:37;;;;;;;68.37;28.50;;;;;;;;;;767203;182;917550;-61
2022/11/30 11:43:04;;;;;;;120.70;46.13;;;;;;;;;;771873;182;918773;-65
2022/11/30 11:45:29;;;;;;;98.07;39.57;;;;;;;;;;752878;184;919649;-61
2022/11/30 11:47:55;;;;;;;88.10;33.60;;;;;;;;;;750049;185;918700;-65
2022/11/30 11:50:22;;;;;;;101.93;35.95;;;;;;;;;;750561;185;918489;-62
2022/11/30 11:52:48;;;;;;;67.57;29.27;;;;;;;;;;759889;183;915754;-66
2022/11/30 11:55:13;;;;;;;75.10;27.13;;;;;;;;;;755293;183;1018039;-64
2022/11/30 11:57:39;;;;;;;78.00;32.70;;;;;;;;;;755386;183;919388;-61
2022/11/30 12:00:06;;;;;;;144.67;67.33;;;;;;;;;;757531;183;919685;-61
2022/11/30 12:02:48;;;;;;;128.70;48.43;;;;;;;;;;754306;183;921385;-65
2022/11/30 12:05:15;;;;;;;124.77;44.83;;;;;;;;;;757957;183;920429;-62
2022/11/30 12:07:41;;;;;;;90.77;29.30;;;;;;;;;;761536;183;913952;-61
2022/11/30 12:10:10;;;;;;;129.13;44.53;;;;;;;;;;759636;184;818794;-65
2022/11/30 12:12:37;;;;;;;127.43;42.27;;;;;;;;;;751593;183;816436;-64
2022/11/30 12:15:02;;;;;;;91.17;34.20;;;;;;;;;;758514;183;918729;-62
2022/11/30 12:17:30;;;;;;;124.40;43.73;;;;;;;;;;760035;183;881395;-65
2022/11/30 12:20:13;;;;;;;94.03;34.87;;;;;;;;;;764604;183;814356;-65
2022/11/30 12:22:46;;;;;;;109.90;50.47;;;;;;;;;;761175;183;915786;-62
2022/11/30 12:25:18;;;;;;;115.20;45.17;;;;;;;;;;755530;183;919164;-60
2022/11/30 12:27:47;;;;;;;76.67;26.47;;;;;;;;;;757064;180;919078;-61
2022/11/30 12:30:13;;;;;;;57.03;25.97;;;;;;;;;;751666;181;949140;-67
2022/11/30 12:32:54;;;;;;;55.70;26.07;;;;;;;;;;772491;180;919525;-61
2022/11/30 12:35:20;;;;;;;74.57;32.03;;;;;;;;;;754539;186;784824;-65
2022/11/30 12:38:01;;;;;;;88.03;36.97;;;;;;;;;;760846;180;919257;-60
2022/11/30 12:40:31;;;;;;;95.17;37.17;;;;;;;;;;763163;180;919494;-61
2022/11/30 12:42:59;;;;;;;78.20;30.03;;;;;;;;;;768013;180;919403;-64
2022/11/30 12:45:25;;;;;;;83.70;34.87;;;;;;;;;;757785;183;886661;-65
2022/11/30 12:48:00;;;;;;;70.40;25.20;;;;;;;;;;768622;182;928540;-61
2022/11/30 12:50:44;;;;;;;89.67;34.93;;;;;;;;;;771597;180;916123;-64
2022/11/30 12:53:16;;;;;;;99.17;38.83;;;;;;;;;;768817;179;822413;-64
2022/11/30 12:55:44;;;;;;;77.93;37.20;;;;;;;;;;749810;186;834049;-60
2022/11/30 12:58:11;;;;;;;118.18;43.03;;;;;;;;;;749375;184;917435;-64
2022/11/30 13:00:43;;;;;;;118.20;46.63;;;;;;;;;;744911;188;918507;-64
2022/11/30 13:03:18;;;;;;;85.57;36.23;;;;;;;;;;750392;187;919365;-64
2022/11/30 13:05:44;;;;;;;96.77;41.20;;;;;;;;;;761542;183;918989;-61
2022/11/30 13:08:14;;;;;;;104.90;38.97;;;;;;;;;;756704;182;1020957;-60
2022/11/30 13:10:41;;;;;;;68.37;30.93;;;;;;;;;;754421;183;918325;-64
2022/11/30 13:13:06;;;;;;;80.87;30.57;;;;;;;;;;773763;179;882423;-61
2022/11/30 13:15:32;;;;;;;86.53;37.93;;;;;;;;;;764590;179;919311;-61
2022/11/30 13:17:58;;;;;;;66.93;29.03;;;;;;;;;;757738;184;919325;-64
2022/11/30 13:20:24;;;;;;;80.90;36.80;;;;;;;;;;775164;179;918524;-60
2022/11/30 13:22:53;;;;;;;120.63;49.00;;;;;;;;;;768485;180;918365;-61
2022/11/30 13:25:23;;;;;;;64.17;35.13;;;;;;;;;;768178;179;921962;-62
2022/11/30 13:27:49;;;;;;;52.13;21.30;;;;;;;;;;773651;179;919630;-61
2022/11/30 13:30:16;;;;;;;76.50;31.23;;;;;;;;;;775654;179;918777;-61
2022/11/30 13:32:42;;;;;;;66.87;27.95;;;;;;;;;;767122;180;918587;-65
2022/11/30 13:35:14;;;;;;;86.70;39.23;;;;;;;;;;756739;184;918668;-64
2022/11/30 13:37:39;;;;;;;95.30;41.60;;;;;;;;;;749955;184;921229;-64
2022/11/30 13:40:05;;;;;;;90.77;34.07;;;;;;;;;;762918;183;921575;-65
2022/11/30 13:42:35;;;;;;;64.07;32.57;;;;;;;;;;761008;183;920376;-63
2022/11/30 13:45:07;;;;;;;90.50;34.40;;;;;;;;;;762853;180;913234;-65
2022/11/30 13:47:33;;;;;;;86.55;32.42;;;;;;;;;;783004;179;816637;-62
2022/11/30 13:49:59;;;;;;;56.93;28.53;;;;;;;;;;750202;183;919292;-61
2022/11/30 13:52:31;;;;;;;88.33;36.73;;;;;;;;;;760442;183;918838;-60
2022/11/30 13:54:57;;;;;;;105.23;51.17;;;;;;;;;;767529;181;919316;-64
2022/11/30 13:57:39;;;;;;;76.13;30.57;;;;;;;;;;774739;180;916613;-61
2022/11/30 14:00:10;;;;;;;114.77;48.90;;;;;;;;;;767673;181;916628;-61